Time;durP1;ratioP1;P1;durP2;ratioP2;P2;SDS_P1;SDS_P2;PMS_P1;PMS_P2;Temp;Humidity;BMP_temperature;BMP_pressure;BME280_temperature;BME280_humidity;BME280_pressure;Samples;Min_cycle;Max_cycle;Signal;HPM_P1;HPM_P2
2022/03/26 00:01:00;;;;;;;51.38;26.92;;;6.00;99.90;;;;;;5019633;28;20049;-74
2022/03/26 00:03:26;;;;;;;63.85;30.67;;;6.00;99.90;;;;;;5017138;28;20049;-74
2022/03/26 00:05:51;;;;;;;56.40;29.90;;;6.00;99.90;;;;;;5021276;28;20073;-74
2022/03/26 00:08:17;;;;;;;51.33;27.08;;;6.00;99.90;;;;;;5030258;28;20124;-74
2022/03/26 00:10:43;;;;;;;56.20;26.63;;;6.00;99.90;;;;;;5026058;28;20417;-74
2022/03/26 00:13:09;;;;;;;56.45;27.55;;;6.00;99.90;;;;;;5023896;28;20056;-74
2022/03/26 00:15:35;;;;;;;60.58;28.55;;;6.00;99.90;;;;;;5018374;28;20076;-74
2022/03/26 00:18:01;;;;;;;59.78;29.17;;;5.60;99.90;;;;;;5018662;28;20095;-74
2022/03/26 00:20:26;;;;;;;59.20;28.33;;;5.90;99.90;;;;;;5026132;28;20045;-74
2022/03/26 00:22:52;;;;;;;64.53;30.45;;;5.90;99.90;;;;;;5027648;28;20064;-74
2022/03/26 00:25:17;;;;;;;70.25;30.65;;;5.80;99.90;;;;;;5022427;28;20048;-74
2022/03/26 00:27:43;;;;;;;65.82;31.00;;;5.80;99.90;;;;;;5019375;28;20041;-74
2022/03/26 00:30:11;;;;;;;63.78;30.77;;;5.90;99.90;;;;;;5019047;28;20071;-74
2022/03/26 00:32:37;;;;;;;69.53;33.38;;;5.70;99.90;;;;;;5017958;28;20614;-74
2022/03/26 00:35:03;;;;;;;70.75;32.67;;;5.70;99.90;;;;;;5022847;28;20045;-74
2022/03/26 00:37:29;;;;;;;68.95;33.03;;;5.70;99.90;;;;;;5018020;28;20057;-74
2022/03/26 00:39:54;;;;;;;69.50;32.17;;;5.70;99.90;;;;;;5050930;28;20510;-74
2022/03/26 00:42:20;;;;;;;65.82;32.28;;;5.60;99.90;;;;;;5027595;28;20777;-74
2022/03/26 00:44:46;;;;;;;59.40;29.45;;;5.60;99.90;;;;;;5018544;28;20045;-74
2022/03/26 00:47:12;;;;;;;65.53;31.65;;;5.60;99.90;;;;;;5018479;28;20042;-74
2022/03/26 00:49:37;;;;;;;65.85;30.48;;;5.60;99.90;;;;;;5029829;28;20734;-74
2022/03/26 00:52:03;;;;;;;66.55;29.75;;;5.60;99.90;;;;;;5019304;28;20045;-74
2022/03/26 00:54:30;;;;;;;60.22;30.77;;;5.50;99.90;;;;;;5017249;28;20801;-74
2022/03/26 00:56:57;;;;;;;64.88;33.55;;;5.50;99.90;;;;;;5023121;28;20056;-74
2022/03/26 00:59:22;;;;;;;73.70;33.35;;;5.40;99.90;;;;;;5024075;28;20041;-74
2022/03/26 01:01:48;;;;;;;66.57;32.15;;;5.40;99.90;;;;;;5020928;28;20083;-74
2022/03/26 01:04:13;;;;;;;71.25;32.72;;;5.30;99.90;;;;;;5024935;28;20049;-74
2022/03/26 01:06:39;;;;;;;63.17;30.92;;;5.40;99.90;;;;;;5036309;28;20040;-74
2022/03/26 01:09:05;;;;;;;71.78;33.45;;;5.30;99.90;;;;;;5026587;28;20127;-74
2022/03/26 01:11:30;;;;;;;66.75;33.90;;;5.30;99.90;;;;;;5018238;28;20041;-74
2022/03/26 01:13:56;;;;;;;69.65;32.60;;;5.30;99.90;;;;;;5018198;28;20559;-74
2022/03/26 01:16:25;;;;;;;74.88;34.13;;;5.20;99.90;;;;;;5024489;28;20569;-75
2022/03/26 01:18:52;;;;;;;73.82;34.88;;;5.20;99.90;;;;;;5018897;28;20077;-74
2022/03/26 01:21:19;;;;;;;72.78;33.45;;;5.20;99.90;;;;;;5023739;28;20054;-74
2022/03/26 01:23:46;;;;;;;77.68;35.28;;;5.10;99.90;;;;;;5022832;28;20060;-74
2022/03/26 01:26:16;;;;;;;73.95;34.63;;;5.20;99.90;;;;;;5018206;28;20076;-75
2022/03/26 01:28:43;;;;;;;74.32;35.50;;;5.10;99.90;;;;;;5030420;28;20041;-74
2022/03/26 01:31:09;;;;;;;75.75;36.05;;;5.10;99.90;;;;;;5018656;28;20085;-74
2022/03/26 01:33:34;;;;;;;71.68;35.20;;;5.10;99.90;;;;;;5019145;28;20125;-74
2022/03/26 01:36:00;;;;;;;75.43;34.00;;;5.10;99.90;;;;;;5026576;28;20049;-74
2022/03/26 01:38:26;;;;;;;69.13;33.85;;;5.10;99.90;;;;;;5023663;28;20085;-74
2022/03/26 01:40:51;;;;;;;75.57;34.75;;;5.10;99.90;;;;;;5017665;28;20041;-74
2022/03/26 01:43:17;;;;;;;79.70;34.80;;;5.10;99.90;;;;;;5016329;28;20053;-74
2022/03/26 01:45:44;;;;;;;77.95;35.92;;;5.10;99.90;;;;;;5033855;28;20818;-74
2022/03/26 01:48:10;;;;;;;90.43;40.70;;;5.00;99.90;;;;;;5017977;28;20087;-74
2022/03/26 01:50:36;;;;;;;90.80;40.50;;;5.00;99.90;;;;;;5050108;28;20069;-74
2022/03/26 01:53:02;;;;;;;83.47;37.17;;;5.00;99.90;;;;;;5024856;28;20048;-74
2022/03/26 01:55:28;;;;;;;82.40;37.17;;;5.00;99.90;;;;;;5017291;28;20067;-74
2022/03/26 01:57:54;;;;;;;84.97;38.22;;;5.00;99.90;;;;;;5017689;28;20045;-74
2022/03/26 02:00:20;;;;;;;82.78;37.15;;;4.90;99.90;;;;;;5024508;28;20677;-74
2022/03/26 02:02:45;;;;;;;79.35;34.97;;;4.90;99.90;;;;;;5034553;28;20242;-74
2022/03/26 02:05:16;;;;;;;76.07;35.47;;;4.90;99.90;;;;;;5027018;28;20053;-74
2022/03/26 02:07:43;;;;;;;77.55;35.45;;;4.80;99.90;;;;;;5026382;28;20049;-74
2022/03/26 02:10:11;;;;;;;65.60;30.85;;;4.80;99.90;;;;;;5021414;28;20057;-74
2022/03/26 02:12:36;;;;;;;67.53;33.28;;;4.70;99.90;;;;;;5021317;28;20045;-74
2022/03/26 02:15:04;;;;;;;74.15;32.25;;;4.70;99.90;;;;;;5026276;28;20114;-74
2022/03/26 02:17:30;;;;;;;68.05;31.92;;;4.70;99.90;;;;;;5026865;28;20093;-74
2022/03/26 02:20:00;;;;;;;69.28;32.28;;;4.70;99.90;;;;;;5044033;28;20477;-74
2022/03/26 02:22:27;;;;;;;70.28;33.88;;;4.60;99.90;;;;;;5021821;28;20093;-74
2022/03/26 02:24:53;;;;;;;73.03;34.17;;;4.60;99.90;;;;;;5027977;28;20049;-74
2022/03/26 02:27:21;;;;;;;68.18;33.17;;;4.50;99.90;;;;;;5019589;28;20037;-74
2022/03/26 02:29:47;;;;;;;81.47;35.90;;;4.50;99.90;;;;;;5020923;28;20059;-74
2022/03/26 02:32:13;;;;;;;80.95;35.83;;;4.50;99.90;;;;;;5023452;28;20057;-74
2022/03/26 02:34:38;;;;;;;74.07;34.90;;;4.40;99.90;;;;;;5043524;28;20037;-74
2022/03/26 02:37:04;;;;;;;78.35;35.15;;;4.40;99.90;;;;;;5019377;28;20188;-74
2022/03/26 02:39:30;;;;;;;77.47;35.72;;;4.40;99.90;;;;;;5019069;28;20073;-74
2022/03/26 02:41:56;;;;;;;72.30;34.47;;;4.30;99.90;;;;;;5019526;28;20423;-74
2022/03/26 02:44:22;;;;;;;84.28;38.10;;;4.30;99.90;;;;;;5025149;28;20028;-74
2022/03/26 02:46:47;;;;;;;81.40;37.42;;;4.20;99.90;;;;;;5024951;28;20046;-74
2022/03/26 02:49:14;;;;;;;77.03;36.70;;;4.20;99.90;;;;;;5021717;28;20500;-74
2022/03/26 02:51:40;;;;;;;90.00;39.83;;;4.20;99.90;;;;;;5020454;28;20088;-74
2022/03/26 02:54:18;;;;;;;92.22;41.10;;;4.20;99.90;;;;;;5019379;28;20056;-74
2022/03/26 02:56:45;;;;;;;82.30;36.95;;;4.40;99.90;;;;;;5023711;28;20064;-74
2022/03/26 02:59:10;;;;;;;93.70;40.13;;;4.20;99.90;;;;;;5034573;28;20061;-74
2022/03/26 03:01:36;;;;;;;86.03;38.97;;;4.20;99.90;;;;;;5024045;28;20053;-74
2022/03/26 03:04:01;;;;;;;84.50;37.88;;;4.20;99.90;;;;;;5027328;28;20759;-75
2022/03/26 03:06:27;;;;;;;87.53;37.67;;;4.20;99.90;;;;;;5025094;28;20045;-75
2022/03/26 03:08:53;;;;;;;88.55;38.97;;;4.20;99.90;;;;;;5022859;28;20044;-74
2022/03/26 03:11:18;;;;;;;84.55;37.30;;;4.20;99.90;;;;;;5024555;28;20802;-74
2022/03/26 03:13:44;;;;;;;84.30;39.85;;;4.20;99.90;;;;;;5019542;28;20045;-74
2022/03/26 03:16:09;;;;;;;84.80;38.83;;;4.20;99.90;;;;;;5024731;28;20119;-74
2022/03/26 03:18:35;;;;;;;86.70;40.33;;;4.20;99.90;;;;;;5021003;28;20045;-75
2022/03/26 03:21:01;;;;;;;102.13;43.50;;;4.30;99.90;;;;;;5018033;28;20773;-74
2022/03/26 03:23:26;;;;;;;107.85;46.78;;;4.10;99.90;;;;;;5027095;28;20119;-75
2022/03/26 03:25:52;;;;;;;105.00;44.97;;;4.10;99.90;;;;;;5026523;28;20056;-75
2022/03/26 03:28:17;;;;;;;116.45;47.78;;;4.10;99.90;;;;;;5022527;28;20768;-74
2022/03/26 03:30:43;;;;;;;115.50;47.72;;;4.20;99.90;;;;;;5022708;28;20068;-74
2022/03/26 03:33:09;;;;;;;98.78;41.55;;;4.00;99.90;;;;;;5014759;28;20048;-75
2022/03/26 03:35:34;;;;;;;91.57;41.92;;;4.00;99.90;;;;;;5019243;28;20049;-74
2022/03/26 03:38:00;;;;;;;92.25;39.20;;;4.00;99.90;;;;;;5019660;28;20092;-74
2022/03/26 03:40:25;;;;;;;101.65;42.88;;;3.90;99.90;;;;;;5020573;28;20594;-74
2022/03/26 03:42:53;;;;;;;105.72;43.33;;;3.90;99.90;;;;;;5025806;28;20049;-74
2022/03/26 03:45:18;;;;;;;95.10;42.70;;;3.90;99.90;;;;;;5031255;28;20046;-74
2022/03/26 03:47:44;;;;;;;98.90;43.22;;;3.90;99.90;;;;;;5024088;28;20587;-74
2022/03/26 03:50:09;;;;;;;98.00;42.00;;;3.80;99.90;;;;;;5023771;28;20105;-74
2022/03/26 03:52:35;;;;;;;98.47;41.30;;;3.80;99.90;;;;;;5019944;28;20688;-75
2022/03/26 03:55:01;;;;;;;104.03;44.30;;;3.80;99.90;;;;;;5028231;28;20603;-74
2022/03/26 03:57:26;;;;;;;113.82;46.03;;;3.80;99.90;;;;;;5024287;28;20045;-74
2022/03/26 03:59:52;;;;;;;108.10;45.25;;;3.80;99.90;;;;;;5031294;28;20045;-74
2022/03/26 04:02:18;;;;;;;101.30;44.45;;;3.70;99.90;;;;;;5023663;28;20076;-74
2022/03/26 04:04:43;;;;;;;96.50;42.65;;;3.80;99.90;;;;;;5017611;28;20568;-74
2022/03/26 04:07:09;;;;;;;98.15;41.53;;;3.70;99.90;;;;;;5026923;28;20774;-74
2022/03/26 04:09:37;;;;;;;98.50;42.28;;;3.70;99.90;;;;;;5018592;28;20060;-74
2022/03/26 04:12:03;;;;;;;107.00;44.58;;;3.70;99.90;;;;;;5024764;28;20504;-74
2022/03/26 04:14:29;;;;;;;103.82;44.58;;;3.70;99.90;;;;;;5023309;28;20038;-74
2022/03/26 04:16:55;;;;;;;120.53;47.97;;;3.70;99.90;;;;;;5018870;28;20049;-74
2022/03/26 04:19:21;;;;;;;118.63;48.75;;;3.70;99.90;;;;;;5036575;28;20045;-75
2022/03/26 04:21:47;;;;;;;120.10;50.63;;;3.70;99.90;;;;;;5020621;28;20079;-74
2022/03/26 04:24:13;;;;;;;122.93;49.63;;;3.70;99.90;;;;;;5027472;28;20053;-74
2022/03/26 04:26:39;;;;;;;106.13;45.88;;;3.70;99.90;;;;;;5015937;28;20802;-74
2022/03/26 04:29:04;;;;;;;128.90;51.90;;;3.70;99.90;;;;;;5029437;28;20761;-74
2022/03/26 04:31:30;;;;;;;142.43;56.10;;;3.80;99.90;;;;;;5045057;28;20100;-75
2022/03/26 04:34:01;;;;;;;145.60;57.53;;;3.80;99.90;;;;;;5017448;28;20112;-75
2022/03/26 04:36:27;;;;;;;165.63;63.17;;;3.80;99.90;;;;;;5018969;28;20041;-75
2022/03/26 04:38:53;;;;;;;144.35;59.72;;;3.30;99.90;;;;;;5020006;28;20055;-74
2022/03/26 04:41:18;;;;;;;163.52;61.45;;;3.80;99.90;;;;;;5024840;28;20041;-75
2022/03/26 04:43:44;;;;;;;143.43;60.25;;;3.80;99.90;;;;;;5046710;28;20049;-74
2022/03/26 04:46:09;;;;;;;133.77;55.22;;;3.80;99.90;;;;;;5018803;28;20741;-74
2022/03/26 04:48:35;;;;;;;145.55;54.55;;;3.70;99.90;;;;;;5018756;28;20831;-74
2022/03/26 04:51:01;;;;;;;134.85;53.35;;;3.70;99.90;;;;;;5021929;28;20122;-75
2022/03/26 04:53:26;;;;;;;139.85;52.97;;;3.70;99.90;;;;;;5016796;28;20563;-74
2022/03/26 04:55:52;;;;;;;132.38;52.60;;;3.70;99.90;;;;;;5018160;28;20416;-74
2022/03/26 04:58:17;;;;;;;130.07;49.92;;;3.80;99.90;;;;;;5029704;28;20037;-74
2022/03/26 05:00:43;;;;;;;127.57;53.25;;;3.60;99.90;;;;;;5027935;28;20504;-75
2022/03/26 05:03:08;;;;;;;131.13;52.08;;;3.60;99.90;;;;;;5018456;28;20519;-74
2022/03/26 05:05:34;;;;;;;141.23;55.22;;;3.60;99.90;;;;;;5016330;28;20049;-74
2022/03/26 05:08:00;;;;;;;124.57;52.22;;;3.60;99.90;;;;;;5016218;28;20049;-75
2022/03/26 05:10:28;;;;;;;158.80;63.10;;;3.60;99.90;;;;;;5024267;28;20064;-74
2022/03/26 05:12:55;;;;;;;159.80;61.42;;;3.70;99.90;;;;;;5036071;28;20056;-75
2022/03/26 05:15:23;;;;;;;146.98;58.70;;;3.80;99.90;;;;;;5019213;28;20043;-74
2022/03/26 05:17:52;;;;;;;172.88;65.47;;;3.80;99.90;;;;;;5023024;28;20041;-74
2022/03/26 05:20:18;;;;;;;153.23;60.45;;;3.90;99.90;;;;;;5026261;28;20127;-74
2022/03/26 05:22:46;;;;;;;175.38;64.88;;;3.90;99.90;;;;;;5016456;28;20064;-75
2022/03/26 05:25:12;;;;;;;165.50;65.88;;;4.00;99.90;;;;;;5024096;28;20106;-74
2022/03/26 05:27:42;;;;;;;151.57;59.38;;;4.00;99.90;;;;;;5022440;28;20087;-74
2022/03/26 05:30:08;;;;;;;182.80;66.57;;;4.00;99.90;;;;;;5020841;28;20073;-74
2022/03/26 05:32:34;;;;;;;165.95;64.75;;;4.10;99.90;;;;;;5019626;28;20038;-75
2022/03/26 05:35:00;;;;;;;181.88;69.15;;;4.10;99.90;;;;;;5025322;28;20083;-74
2022/03/26 05:37:25;;;;;;;198.50;71.75;;;4.10;99.90;;;;;;5017993;28;20049;-74
2022/03/26 05:39:51;;;;;;;202.35;74.80;;;4.20;99.90;;;;;;5019126;28;20584;-74
2022/03/26 05:42:18;;;;;;;160.40;63.03;;;4.20;99.90;;;;;;5025073;28;20447;-75
2022/03/26 05:44:44;;;;;;;163.60;62.08;;;4.20;99.90;;;;;;5027126;28;20115;-74
2022/03/26 05:47:10;;;;;;;170.88;67.35;;;4.20;99.90;;;;;;5044465;28;20126;-74
2022/03/26 05:49:36;;;;;;;162.25;65.35;;;4.20;99.90;;;;;;5020616;28;20084;-74
2022/03/26 05:52:02;;;;;;;187.93;68.57;;;4.20;99.90;;;;;;5043175;28;20053;-74
2022/03/26 05:54:27;;;;;;;176.43;67.13;;;4.20;99.90;;;;;;5033718;28;20470;-74
2022/03/26 05:56:53;;;;;;;190.80;70.55;;;4.20;99.90;;;;;;5053441;28;20049;-73
2022/03/26 05:59:23;;;;;;;185.93;71.32;;;4.20;99.90;;;;;;5020324;28;20527;-74
2022/03/26 06:01:49;;;;;;;166.27;64.25;;;4.20;99.90;;;;;;5024678;28;20041;-74
2022/03/26 06:04:16;;;;;;;174.45;66.85;;;4.30;99.90;;;;;;5019453;28;20060;-74
2022/03/26 06:06:42;;;;;;;173.38;68.95;;;4.20;99.90;;;;;;5026789;28;20132;-74
2022/03/26 06:09:08;;;;;;;169.63;68.75;;;4.30;99.90;;;;;;5039687;28;20689;-73
2022/03/26 06:11:34;;;;;;;162.13;65.45;;;4.40;99.90;;;;;;5031899;28;20108;-73
2022/03/26 06:14:00;;;;;;;166.63;62.40;;;4.30;99.90;;;;;;5030342;28;20124;-74
2022/03/26 06:16:26;;;;;;;166.13;62.70;;;4.40;99.90;;;;;;5021843;28;20050;-73
2022/03/26 06:18:51;;;;;;;175.50;68.47;;;4.40;99.90;;;;;;5030295;28;20144;-73
2022/03/26 06:21:17;;;;;;;157.98;62.25;;;4.40;99.90;;;;;;5032448;28;20143;-73
2022/03/26 06:23:43;;;;;;;161.23;63.55;;;4.40;99.90;;;;;;5039257;28;20106;-73
2022/03/26 06:26:10;;;;;;;182.43;68.43;;;4.50;99.90;;;;;;5044883;28;20062;-73
2022/03/26 06:28:37;;;;;;;167.60;65.03;;;4.50;99.90;;;;;;5021058;28;20068;-73
2022/03/26 06:31:03;;;;;;;172.65;67.30;;;4.60;99.90;;;;;;5020961;28;20068;-73
2022/03/26 06:33:29;;;;;;;171.93;66.05;;;4.60;99.90;;;;;;5024872;28;20049;-73
2022/03/26 06:35:55;;;;;;;169.30;66.22;;;4.60;99.90;;;;;;5027446;28;20574;-72
2022/03/26 06:38:20;;;;;;;167.27;63.88;;;4.70;99.90;;;;;;5029721;28;20148;-74
2022/03/26 06:40:46;;;;;;;173.30;67.47;;;4.70;99.90;;;;;;5044601;28;20052;-74
2022/03/26 06:43:12;;;;;;;159.10;60.78;;;4.70;99.90;;;;;;5048280;28;20080;-74
2022/03/26 06:45:38;;;;;;;157.18;63.38;;;4.70;99.90;;;;;;5032492;28;20107;-74
2022/03/26 06:48:04;;;;;;;156.75;62.28;;;4.80;99.90;;;;;;5030464;28;20787;-73
2022/03/26 06:50:29;;;;;;;162.32;63.80;;;4.80;99.90;;;;;;5034128;28;20045;-74
2022/03/26 06:52:55;;;;;;;149.48;60.72;;;4.90;99.90;;;;;;5038858;28;20122;-75
2022/03/26 06:55:22;;;;;;;151.13;60.30;;;5.00;99.90;;;;;;5024762;28;20152;-74
2022/03/26 06:57:49;;;;;;;158.55;62.80;;;5.00;99.90;;;;;;5039541;28;20127;-74
2022/03/26 07:00:16;;;;;;;158.73;62.80;;;5.10;99.90;;;;;;5044462;28;20701;-74
2022/03/26 07:02:43;;;;;;;152.80;61.92;;;5.20;99.90;;;;;;5040106;28;20056;-74
2022/03/26 07:05:09;;;;;;;153.35;62.42;;;5.30;99.90;;;;;;5034166;28;20068;-74
2022/03/26 07:07:35;;;;;;;144.93;59.78;;;5.40;99.90;;;;;;5020507;28;20046;-74
2022/03/26 07:10:02;;;;;;;157.18;64.70;;;5.50;99.90;;;;;;5043289;28;20099;-74
2022/03/26 07:12:27;;;;;;;143.88;59.50;;;5.60;99.90;;;;;;5035299;28;20472;-74
2022/03/26 07:14:53;;;;;;;151.32;61.28;;;5.70;99.90;;;;;;5039143;28;20053;-74
2022/03/26 07:17:19;;;;;;;154.80;63.95;;;5.80;99.90;;;;;;5030357;28;20676;-74
2022/03/26 07:19:45;;;;;;;147.63;60.75;;;5.90;99.90;;;;;;5035913;28;20044;-74
2022/03/26 07:22:11;;;;;;;147.48;60.10;;;5.90;99.90;;;;;;5037935;28;20122;-74
2022/03/26 07:24:37;;;;;;;140.88;58.83;;;6.00;99.90;;;;;;5033915;28;20064;-74
2022/03/26 07:27:03;;;;;;;145.43;57.78;;;6.10;99.90;;;;;;5033527;28;20049;-74
2022/03/26 07:29:28;;;;;;;141.18;60.55;;;6.30;99.90;;;;;;5040909;28;20091;-74
2022/03/26 07:31:55;;;;;;;144.40;59.13;;;6.30;99.90;;;;;;5032680;28;20065;-74
2022/03/26 07:34:22;;;;;;;137.73;57.58;;;6.50;99.90;;;;;;5053343;28;20040;-75
2022/03/26 07:36:48;;;;;;;137.43;55.70;;;6.60;99.90;;;;;;5038035;28;20099;-75
2022/03/26 07:39:14;;;;;;;131.73;57.30;;;6.70;99.90;;;;;;5038805;28;20048;-75
2022/03/26 07:41:41;;;;;;;122.93;53.13;;;6.80;99.90;;;;;;5040088;28;20048;-74
2022/03/26 07:44:07;;;;;;;138.55;55.50;;;6.90;99.90;;;;;;5038920;28;20154;-74
2022/03/26 07:46:33;;;;;;;127.60;53.17;;;7.40;99.90;;;;;;5035674;28;20048;-74
2022/03/26 07:48:58;;;;;;;115.63;51.78;;;7.20;99.90;;;;;;5035463;28;20789;-75
2022/03/26 07:51:24;;;;;;;114.30;51.55;;;7.30;99.90;;;;;;5026738;28;20045;-75
2022/03/26 07:53:49;;;;;;;121.72;51.35;;;7.40;99.90;;;;;;5023376;28;20045;-75
2022/03/26 07:56:15;;;;;;;118.85;51.10;;;7.50;99.90;;;;;;5035592;28;20224;-75
2022/03/26 07:58:40;;;;;;;113.60;49.20;;;7.60;99.90;;;;;;5037700;28;20084;-75
2022/03/26 08:01:06;;;;;;;108.15;49.35;;;7.70;99.90;;;;;;5037339;28;20048;-75
2022/03/26 08:03:32;;;;;;;113.18;49.45;;;7.80;99.90;;;;;;5040196;28;20076;-75
2022/03/26 08:05:58;;;;;;;107.07;46.60;;;7.90;99.90;;;;;;5032572;28;20053;-75
2022/03/26 08:08:24;;;;;;;104.97;45.17;;;8.00;99.90;;;;;;5046074;28;20052;-76
2022/03/26 08:10:49;;;;;;;106.47;48.08;;;8.10;99.90;;;;;;5047010;28;20044;-75
2022/03/26 08:13:15;;;;;;;102.97;47.38;;;8.20;99.90;;;;;;5037704;28;20127;-76
2022/03/26 08:15:41;;;;;;;95.72;44.92;;;8.30;99.90;;;;;;5026463;28;20049;-77
2022/03/26 08:18:07;;;;;;;98.80;45.47;;;8.50;99.90;;;;;;5052837;28;20103;-76
2022/03/26 08:20:33;;;;;;;88.32;42.55;;;8.60;99.90;;;;;;5045771;28;20055;-76
2022/03/26 08:22:59;;;;;;;97.32;43.50;;;8.70;99.90;;;;;;5029556;28;20696;-74
2022/03/26 08:28:10;;;;;;;94.10;42.70;;;8.90;99.90;;;;;;5023151;28;20065;-75
2022/03/26 08:30:37;;;;;;;91.35;41.50;;;9.00;99.90;;;;;;5038948;28;20425;-75
2022/03/26 08:33:04;;;;;;;76.55;40.38;;;9.10;99.90;;;;;;5040826;28;20079;-75
2022/03/26 08:35:40;;;;;;;83.35;40.40;;;9.20;99.90;;;;;;5037594;28;20037;-75
2022/03/26 08:38:07;;;;;;;86.68;42.22;;;9.30;99.90;;;;;;5038128;28;20053;-75
2022/03/26 08:40:32;;;;;;;81.78;39.13;;;9.40;99.90;;;;;;5032049;28;20037;-77
2022/03/26 08:42:59;;;;;;;84.55;40.35;;;9.50;99.90;;;;;;5034864;28;20856;-76
2022/03/26 08:45:28;;;;;;;80.60;39.67;;;9.60;99.90;;;;;;5033726;28;20045;-74
2022/03/26 08:47:54;;;;;;;69.47;36.42;;;9.70;99.90;;;;;;5036635;28;20142;-75
2022/03/26 08:50:21;;;;;;;68.72;36.13;;;9.90;99.90;;;;;;5021824;28;20587;-76
2022/03/26 08:52:47;;;;;;;68.82;36.20;;;10.00;99.90;;;;;;5019441;28;20148;-76
2022/03/26 08:55:14;;;;;;;66.95;36.13;;;10.10;99.90;;;;;;5018777;28;20136;-75
2022/03/26 08:57:40;;;;;;;71.43;36.55;;;10.20;99.90;;;;;;5030278;28;20045;-76
2022/03/26 09:00:07;;;;;;;68.57;34.03;;;10.30;99.90;;;;;;5048130;28;20045;-77
2022/03/26 09:02:32;;;;;;;65.97;35.75;;;10.50;99.90;;;;;;5041148;28;20087;-75
2022/03/26 09:04:58;;;;;;;67.88;33.92;;;10.60;99.90;;;;;;5038423;28;20057;-76
2022/03/26 09:07:24;;;;;;;67.47;35.53;;;10.70;99.90;;;;;;5040418;28;20052;-75
2022/03/26 09:09:49;;;;;;;59.72;33.88;;;10.80;99.90;;;;;;5034691;28;20084;-76
2022/03/26 09:12:15;;;;;;;60.50;34.38;;;11.00;99.90;;;;;;5037649;28;20045;-75
2022/03/26 09:14:41;;;;;;;68.25;34.75;;;11.20;99.90;;;;;;5041563;28;20584;-74
2022/03/26 09:17:06;;;;;;;69.03;35.78;;;11.30;99.90;;;;;;5052261;28;20045;-75
2022/03/26 09:19:32;;;;;;;66.20;35.05;;;11.50;99.90;;;;;;5044312;28;20052;-75
2022/03/26 09:21:58;;;;;;;53.70;29.65;;;11.60;99.90;;;;;;5043493;28;20057;-75
2022/03/26 09:24:24;;;;;;;57.30;32.17;;;11.70;99.90;;;;;;5045531;28;20045;-76
2022/03/26 09:26:49;;;;;;;60.55;32.92;;;11.90;99.90;;;;;;5040735;28;20048;-76
2022/03/26 09:29:16;;;;;;;51.83;29.30;;;12.10;99.90;;;;;;5042604;28;20052;-75
2022/03/26 09:31:42;;;;;;;55.00;31.58;;;12.30;99.90;;;;;;5045616;28;20044;-73
2022/03/26 09:34:08;;;;;;;49.53;29.25;;;12.50;99.90;;;;;;5040826;28;20049;-75
2022/03/26 09:36:34;;;;;;;50.58;28.75;;;12.60;99.90;;;;;;5053027;28;20591;-75
2022/03/26 09:38:59;;;;;;;50.72;27.70;;;12.80;99.90;;;;;;5022139;28;20621;-75
2022/03/26 09:41:27;;;;;;;42.15;25.63;;;13.00;99.90;;;;;;5021124;28;20046;-75
2022/03/26 09:43:54;;;;;;;48.53;27.00;;;13.10;99.90;;;;;;5038590;28;20059;-77
2022/03/26 09:46:20;;;;;;;46.88;26.15;;;13.20;99.90;;;;;;5053633;28;20090;-76
2022/03/26 09:48:47;;;;;;;44.30;26.80;;;13.30;99.90;;;;;;5063277;28;20056;-76
2022/03/26 09:51:21;;;;;;;43.30;25.35;;;13.50;99.90;;;;;;5044890;28;20060;-76
2022/03/26 09:53:49;;;;;;;46.40;27.63;;;13.60;99.90;;;;;;5032755;28;20049;-76
2022/03/26 09:56:15;;;;;;;40.10;23.08;;;13.70;99.90;;;;;;5042634;28;20041;-76
2022/03/26 09:58:41;;;;;;;41.10;24.23;;;13.80;99.90;;;;;;5044713;28;20040;-77
2022/03/26 10:01:07;;;;;;;42.80;23.77;;;13.90;99.90;;;;;;5011063;28;20060;-76
2022/03/26 10:03:33;;;;;;;36.08;22.88;;;14.10;99.90;;;;;;5033904;28;20044;-79
2022/03/26 10:06:03;;;;;;;40.53;23.50;;;14.20;99.90;;;;;;5044242;28;20124;-78
2022/03/26 10:08:37;;;;;;;33.45;21.65;;;14.30;99.90;;;;;;5061531;28;20128;-79
2022/03/26 10:11:04;;;;;;;35.42;22.13;;;14.40;99.90;;;;;;5063249;28;20384;-79
2022/03/26 10:13:46;;;;;;;34.10;20.92;;;14.50;99.90;;;;;;5050540;28;20049;-79
2022/03/26 10:16:13;;;;;;;31.70;20.65;;;14.70;99.90;;;;;;5042303;28;20060;-78
2022/03/26 10:18:40;;;;;;;35.72;21.00;;;14.70;99.90;;;;;;5060004;28;20052;-78
2022/03/26 10:21:17;;;;;;;30.67;19.70;;;14.80;99.90;;;;;;5044332;28;20112;-79
2022/03/26 10:23:44;;;;;;;30.65;19.67;;;15.00;99.90;;;;;;5030523;28;20609;-77
2022/03/26 10:26:15;;;;;;;28.38;18.08;;;15.10;99.90;;;;;;5041170;28;20094;-80
2022/03/26 10:28:57;;;;;;;23.10;15.63;;;15.20;99.90;;;;;;5034091;28;20114;-81
2022/03/26 10:34:19;;;;;;;29.33;14.57;;;15.40;99.90;;;;;;5053261;28;20499;-79
2022/03/26 10:36:57;;;;;;;23.92;14.25;;;15.50;99.90;;;;;;5034560;28;20144;-74
2022/03/26 10:39:25;;;;;;;20.38;13.27;;;15.70;99.90;;;;;;5021778;28;20477;-74
2022/03/26 10:41:52;;;;;;;22.42;13.50;;;15.80;99.90;;;;;;5042558;28;20040;-75
2022/03/26 10:44:22;;;;;;;17.42;10.65;;;15.90;99.90;;;;;;5042503;28;20049;-75
2022/03/26 10:46:55;;;;;;;17.45;9.88;;;16.10;99.90;;;;;;5040600;28;20088;-72
2022/03/26 10:49:31;;;;;;;16.98;10.05;;;16.10;99.90;;;;;;5040667;28;20044;-74
2022/03/26 10:52:10;;;;;;;15.52;8.73;;;16.30;99.90;;;;;;5035541;28;20771;-76
2022/03/26 10:54:36;;;;;;;21.20;12.05;;;16.40;99.90;;;;;;5033554;28;20041;-76
2022/03/26 10:57:02;;;;;;;14.93;8.10;;;16.60;99.90;;;;;;5027924;28;20061;-76
2022/03/26 10:59:29;;;;;;;15.23;8.85;;;16.60;99.20;;;;;;5029245;28;20060;-76
2022/03/26 11:01:55;;;;;;;13.50;9.23;;;16.70;99.90;;;;;;5047177;28;20079;-75
2022/03/26 11:04:21;;;;;;;16.55;9.02;;;16.80;99.70;;;;;;5055953;28;20843;-74
2022/03/26 11:06:48;;;;;;;14.75;9.05;;;16.80;99.10;;;;;;5048068;28;20583;-77
2022/03/26 11:09:17;;;;;;;14.25;8.48;;;16.80;97.80;;;;;;5045255;28;20518;-76
2022/03/26 11:11:47;;;;;;;13.82;8.13;;;16.90;97.40;;;;;;5041703;28;20483;-68
2022/03/26 11:14:31;;;;;;;13.00;9.25;;;16.90;97.90;;;;;;5044087;28;20064;-75
2022/03/26 11:17:18;;;;;;;14.60;8.13;;;17.00;97.30;;;;;;5052930;28;20049;-75
2022/03/26 11:20:13;;;;;;;16.15;9.00;;;17.00;97.00;;;;;;5040275;28;20428;-76
2022/03/26 11:22:51;;;;;;;16.73;8.23;;;17.20;96.70;;;;;;5025416;28;20055;-75
2022/03/26 11:25:38;;;;;;;13.35;8.73;;;17.20;96.00;;;;;;5042026;28;20084;-76
2022/03/26 11:28:22;;;;;;;12.18;6.75;;;17.30;96.90;;;;;;5036183;28;20053;-75
2022/03/26 11:31:08;;;;;;;13.47;8.17;;;17.40;97.40;;;;;;5039689;28;20219;-76
2022/03/26 11:33:37;;;;;;;12.95;7.55;;;17.50;97.30;;;;;;5036122;28;20410;-76
2022/03/26 11:36:05;;;;;;;14.85;6.95;;;17.60;97.30;;;;;;5046773;28;20563;-76
2022/03/26 11:38:32;;;;;;;11.80;7.93;;;17.70;97.30;;;;;;5041117;28;20052;-76
2022/03/26 11:41:03;;;;;;;11.35;7.30;;;17.80;96.70;;;;;;5043471;28;20548;-73
2022/03/26 11:43:44;;;;;;;11.48;6.97;;;17.80;96.20;;;;;;5042604;28;20052;-74
2022/03/26 11:52:20;;;;;;;10.90;6.25;;;17.80;94.70;;;;;;5046170;28;20699;-79
2022/03/26 11:55:07;;;;;;;10.82;6.55;;;17.70;96.20;;;;;;5039607;28;20083;-79
2022/03/26 11:57:33;;;;;;;9.40;6.38;;;17.70;95.70;;;;;;5034501;28;20068;-74
2022/03/26 12:00:00;;;;;;;10.48;5.22;;;17.70;96.70;;;;;;5039040;28;20080;-75
2022/03/26 12:02:34;;;;;;;8.48;6.03;;;17.70;96.50;;;;;;5039679;28;20552;-75
2022/03/26 12:08:16;;;;;;;8.60;5.13;;;17.90;96.00;;;;;;5041014;28;19928;-76
2022/03/26 12:10:43;;;;;;;10.40;5.28;;;18.00;95.80;;;;;;5053381;28;20575;-76
2022/03/26 12:13:09;;;;;;;9.57;5.25;;;18.10;95.00;;;;;;5047376;28;20495;-76
2022/03/26 12:15:36;;;;;;;10.25;4.80;;;18.10;94.20;;;;;;5037331;28;20586;-76
2022/03/26 12:18:09;;;;;;;8.23;4.32;;;18.20;94.90;;;;;;5040145;28;20049;-76
2022/03/26 12:20:42;;;;;;;9.70;4.85;;;18.20;94.30;;;;;;5030842;28;20041;-76
2022/03/26 12:23:08;;;;;;;6.88;4.07;;;18.30;95.10;;;;;;5018574;28;20068;-76
2022/03/26 12:25:35;;;;;;;7.45;4.38;;;18.40;94.70;;;;;;5037784;28;20049;-76
2022/03/26 12:28:02;;;;;;;7.90;4.70;;;18.50;94.50;;;;;;5038620;28;20062;-76
2022/03/26 12:30:28;;;;;;;8.80;4.30;;;18.50;93.30;;;;;;5056286;28;20155;-76
2022/03/26 12:32:55;;;;;;;7.32;4.07;;;18.40;93.60;;;;;;5041033;28;20130;-76
2022/03/26 12:35:21;;;;;;;11.70;4.95;;;18.40;93.20;;;;;;5039233;28;20102;-76
2022/03/26 12:37:50;;;;;;;7.65;4.28;;;18.30;93.00;;;;;;5039835;28;20144;-76
2022/03/26 12:40:17;;;;;;;9.23;5.05;;;18.30;94.30;;;;;;5038926;28;20080;-76
2022/03/26 12:42:42;;;;;;;6.60;4.50;;;18.30;95.40;;;;;;5038000;28;20077;-76
2022/03/26 12:45:16;;;;;;;8.15;4.80;;;18.20;95.50;;;;;;5038881;28;20711;-76
2022/03/26 12:47:47;;;;;;;6.22;3.33;;;18.20;95.20;;;;;;5057673;28;20044;-76